sensor_id;sensor_type;location;lat;lon;timestamp;P1;durP1;ratioP1;P2;durP2;ratioP2
30408;SDS011;17207;52.960;5.916;2023-09-12T00:01:17;2.65;;;1.88;;
30408;SDS011;17207;52.960;5.916;2023-09-12T00:03:43;3.67;;;1.55;;
30408;SDS011;17207;52.960;5.916;2023-09-12T00:06:09;3.30;;;1.92;;
30408;SDS011;17207;52.960;5.916;2023-09-12T00:08:35;2.25;;;1.70;;
30408;SDS011;17207;52.960;5.916;2023-09-12T00:11:05;2.45;;;1.50;;
30408;SDS011;17207;52.960;5.916;2023-09-12T00:13:34;1.83;;;1.48;;
30408;SDS011;17207;52.960;5.916;2023-09-12T00:16:01;3.40;;;1.58;;
30408;SDS011;17207;52.960;5.916;2023-09-12T00:18:27;1.60;;;1.27;;
30408;SDS011;17207;52.960;5.916;2023-09-12T00:20:53;2.33;;;1.40;;
30408;SDS011;17207;52.960;5.916;2023-09-12T00:23:20;2.60;;;1.88;;
30408;SDS011;17207;52.960;5.916;2023-09-12T00:25:48;2.13;;;1.80;;
30408;SDS011;17207;52.960;5.916;2023-09-12T00:30:41;1.35;;;0.98;;
30408;SDS011;17207;52.960;5.916;2023-09-12T00:33:07;2.50;;;1.88;;
30408;SDS011;17207;52.960;5.916;2023-09-12T00:35:33;3.55;;;2.15;;
30408;SDS011;17207;52.960;5.916;2023-09-12T00:37:59;3.28;;;1.33;;
30408;SDS011;17207;52.960;5.916;2023-09-12T00:40:25;2.15;;;1.83;;
30408;SDS011;17207;52.960;5.916;2023-09-12T00:42:51;2.67;;;1.67;;
30408;SDS011;17207;52.960;5.916;2023-09-12T00:45:17;3.03;;;1.38;;
30408;SDS011;17207;52.960;5.916;2023-09-12T00:47:43;1.33;;;1.15;;
30408;SDS011;17207;52.960;5.916;2023-09-12T00:50:10;2.30;;;1.70;;
30408;SDS011;17207;52.960;5.916;2023-09-12T00:52:36;1.80;;;1.10;;
30408;SDS011;17207;52.960;5.916;2023-09-12T00:55:04;2.90;;;2.00;;
30408;SDS011;17207;52.960;5.916;2023-09-12T00:57:30;1.73;;;1.33;;
30408;SDS011;17207;52.960;5.916;2023-09-12T00:59:57;2.38;;;1.60;;
30408;SDS011;17207;52.960;5.916;2023-09-12T01:02:24;3.20;;;1.38;;
30408;SDS011;17207;52.960;5.916;2023-09-12T01:04:50;3.90;;;2.10;;
30408;SDS011;17207;52.960;5.916;2023-09-12T01:07:16;3.60;;;1.70;;
30408;SDS011;17207;52.960;5.916;2023-09-12T01:09:42;1.55;;;0.90;;
30408;SDS011;17207;52.960;5.916;2023-09-12T01:12:08;1.90;;;1.30;;
30408;SDS011;17207;52.960;5.916;2023-09-12T01:14:39;3.30;;;1.73;;
30408;SDS011;17207;52.960;5.916;2023-09-12T01:17:05;2.17;;;1.38;;
30408;SDS011;17207;52.960;5.916;2023-09-12T01:19:31;8.43;;;1.70;;
30408;SDS011;17207;52.960;5.916;2023-09-12T01:29:38;2.35;;;1.60;;
30408;SDS011;17207;52.960;5.916;2023-09-12T01:32:05;2.20;;;1.40;;
30408;SDS011;17207;52.960;5.916;2023-09-12T01:34:31;2.88;;;1.60;;
30408;SDS011;17207;52.960;5.916;2023-09-12T01:36:57;2.42;;;1.55;;
30408;SDS011;17207;52.960;5.916;2023-09-12T01:39:23;1.02;;;0.98;;
30408;SDS011;17207;52.960;5.916;2023-09-12T01:41:49;2.05;;;1.17;;
30408;SDS011;17207;52.960;5.916;2023-09-12T01:44:16;1.75;;;1.35;;
30408;SDS011;17207;52.960;5.916;2023-09-12T01:46:43;2.27;;;1.40;;
30408;SDS011;17207;52.960;5.916;2023-09-12T01:49:09;1.88;;;1.02;;
30408;SDS011;17207;52.960;5.916;2023-09-12T01:51:35;2.22;;;1.48;;
30408;SDS011;17207;52.960;5.916;2023-09-12T01:54:03;1.73;;;1.00;;
30408;SDS011;17207;52.960;5.916;2023-09-12T01:58:55;2.92;;;1.33;;
30408;SDS011;17207;52.960;5.916;2023-09-12T02:01:21;2.00;;;1.40;;
30408;SDS011;17207;52.960;5.916;2023-09-12T02:03:47;1.50;;;1.20;;
30408;SDS011;17207;52.960;5.916;2023-09-12T02:06:14;1.67;;;1.25;;
30408;SDS011;17207;52.960;5.916;2023-09-12T02:08:40;1.48;;;1.13;;
30408;SDS011;17207;52.960;5.916;2023-09-12T02:11:06;2.00;;;1.30;;
30408;SDS011;17207;52.960;5.916;2023-09-12T02:13:32;1.95;;;1.55;;
30408;SDS011;17207;52.960;5.916;2023-09-12T02:15:58;1.42;;;1.10;;
30408;SDS011;17207;52.960;5.916;2023-09-12T02:18:25;1.80;;;1.50;;
30408;SDS011;17207;52.960;5.916;2023-09-12T02:20:51;1.80;;;1.35;;
30408;SDS011;17207;52.960;5.916;2023-09-12T02:23:17;2.03;;;1.40;;
30408;SDS011;17207;52.960;5.916;2023-09-12T02:25:43;3.35;;;1.50;;
30408;SDS011;17207;52.960;5.916;2023-09-12T02:28:09;2.10;;;1.67;;
30408;SDS011;17207;52.960;5.916;2023-09-12T02:30:37;2.85;;;0.98;;
30408;SDS011;17207;52.960;5.916;2023-09-12T02:33:05;3.25;;;1.90;;
30408;SDS011;17207;52.960;5.916;2023-09-12T02:35:31;1.75;;;1.33;;
30408;SDS011;17207;52.960;5.916;2023-09-12T02:37:57;2.22;;;1.55;;
30408;SDS011;17207;52.960;5.916;2023-09-12T02:40:23;1.80;;;1.38;;
30408;SDS011;17207;52.960;5.916;2023-09-12T02:42:49;2.45;;;1.50;;
30408;SDS011;17207;52.960;5.916;2023-09-12T02:45:16;1.52;;;1.20;;
30408;SDS011;17207;52.960;5.916;2023-09-12T02:47:42;1.85;;;1.60;;
30408;SDS011;17207;52.960;5.916;2023-09-12T02:50:08;2.00;;;1.35;;
30408;SDS011;17207;52.960;5.916;2023-09-12T02:52:34;1.67;;;1.20;;
30408;SDS011;17207;52.960;5.916;2023-09-12T02:55:00;1.88;;;1.20;;
30408;SDS011;17207;52.960;5.916;2023-09-12T02:57:27;2.75;;;1.23;;
30408;SDS011;17207;52.960;5.916;2023-09-12T02:59:53;1.40;;;1.30;;
30408;SDS011;17207;52.960;5.916;2023-09-12T03:02:19;3.33;;;1.75;;
30408;SDS011;17207;52.960;5.916;2023-09-12T03:04:45;2.10;;;1.50;;
30408;SDS011;17207;52.960;5.916;2023-09-12T03:07:11;1.77;;;1.52;;
30408;SDS011;17207;52.960;5.916;2023-09-12T03:09:38;3.72;;;2.35;;
30408;SDS011;17207;52.960;5.916;2023-09-12T03:12:07;2.78;;;1.58;;
30408;SDS011;17207;52.960;5.916;2023-09-12T03:14:33;3.00;;;1.70;;
30408;SDS011;17207;52.960;5.916;2023-09-12T03:16:59;2.35;;;1.35;;
30408;SDS011;17207;52.960;5.916;2023-09-12T03:19:25;1.52;;;1.20;;
30408;SDS011;17207;52.960;5.916;2023-09-12T03:21:51;2.30;;;1.25;;
30408;SDS011;17207;52.960;5.916;2023-09-12T03:24:17;3.88;;;1.30;;
30408;SDS011;17207;52.960;5.916;2023-09-12T03:26:43;4.47;;;1.58;;
30408;SDS011;17207;52.960;5.916;2023-09-12T03:29:10;3.88;;;1.77;;
30408;SDS011;17207;52.960;5.916;2023-09-12T03:31:36;2.92;;;1.27;;
30408;SDS011;17207;52.960;5.916;2023-09-12T03:34:02;2.10;;;1.35;;
30408;SDS011;17207;52.960;5.916;2023-09-12T03:36:28;1.92;;;1.23;;
30408;SDS011;17207;52.960;5.916;2023-09-12T03:38:54;1.63;;;1.10;;
30408;SDS011;17207;52.960;5.916;2023-09-12T03:41:20;1.40;;;1.30;;
30408;SDS011;17207;52.960;5.916;2023-09-12T03:43:50;1.58;;;1.40;;
30408;SDS011;17207;52.960;5.916;2023-09-12T03:46:16;2.97;;;1.38;;
30408;SDS011;17207;52.960;5.916;2023-09-12T03:48:42;2.92;;;1.70;;
30408;SDS011;17207;52.960;5.916;2023-09-12T03:51:08;1.55;;;1.25;;
30408;SDS011;17207;52.960;5.916;2023-09-12T03:53:34;1.73;;;1.33;;
30408;SDS011;17207;52.960;5.916;2023-09-12T03:56:00;1.42;;;1.10;;
30408;SDS011;17207;52.960;5.916;2023-09-12T03:58:26;4.88;;;1.73;;
30408;SDS011;17207;52.960;5.916;2023-09-12T04:00:52;1.52;;;1.33;;
30408;SDS011;17207;52.960;5.916;2023-09-12T04:03:18;2.33;;;1.52;;
30408;SDS011;17207;52.960;5.916;2023-09-12T04:05:46;1.08;;;0.93;;
30408;SDS011;17207;52.960;5.916;2023-09-12T04:08:12;1.73;;;1.10;;
30408;SDS011;17207;52.960;5.916;2023-09-12T04:10:38;3.40;;;0.93;;
30408;SDS011;17207;52.960;5.916;2023-09-12T04:13:05;1.95;;;1.23;;
30408;SDS011;17207;52.960;5.916;2023-09-12T04:15:31;1.98;;;1.10;;
30408;SDS011;17207;52.960;5.916;2023-09-12T04:17:57;2.30;;;1.63;;
30408;SDS011;17207;52.960;5.916;2023-09-12T04:20:23;1.92;;;1.33;;
30408;SDS011;17207;52.960;5.916;2023-09-12T04:22:48;1.05;;;0.90;;
30408;SDS011;17207;52.960;5.916;2023-09-12T04:25:15;2.38;;;1.30;;
30408;SDS011;17207;52.960;5.916;2023-09-12T04:27:41;1.98;;;1.23;;
30408;SDS011;17207;52.960;5.916;2023-09-12T04:30:07;2.45;;;1.58;;
30408;SDS011;17207;52.960;5.916;2023-09-12T04:32:34;2.55;;;1.23;;
30408;SDS011;17207;52.960;5.916;2023-09-12T04:35:00;3.55;;;1.30;;
30408;SDS011;17207;52.960;5.916;2023-09-12T04:37:26;2.47;;;1.30;;
30408;SDS011;17207;52.960;5.916;2023-09-12T04:39:52;1.42;;;1.33;;
30408;SDS011;17207;52.960;5.916;2023-09-12T04:42:18;2.38;;;1.70;;
30408;SDS011;17207;52.960;5.916;2023-09-12T04:44:44;1.30;;;1.10;;
30408;SDS011;17207;52.960;5.916;2023-09-12T04:47:10;2.55;;;1.25;;
30408;SDS011;17207;52.960;5.916;2023-09-12T04:49:36;1.65;;;1.38;;
30408;SDS011;17207;52.960;5.916;2023-09-12T04:52:02;2.03;;;1.20;;
30408;SDS011;17207;52.960;5.916;2023-09-12T04:54:28;2.47;;;1.20;;
30408;SDS011;17207;52.960;5.916;2023-09-12T04:56:54;2.88;;;1.35;;
30408;SDS011;17207;52.960;5.916;2023-09-12T04:59:20;1.63;;;1.10;;
30408;SDS011;17207;52.960;5.916;2023-09-12T05:01:46;1.35;;;1.15;;
30408;SDS011;17207;52.960;5.916;2023-09-12T05:04:12;2.63;;;1.85;;
30408;SDS011;17207;52.960;5.916;2023-09-12T05:06:38;2.72;;;1.50;;
30408;SDS011;17207;52.960;5.916;2023-09-12T05:09:05;2.60;;;1.52;;
30408;SDS011;17207;52.960;5.916;2023-09-12T05:11:34;2.15;;;1.42;;
30408;SDS011;17207;52.960;5.916;2023-09-12T05:14:00;2.20;;;1.33;;
30408;SDS011;17207;52.960;5.916;2023-09-12T05:16:28;2.67;;;1.48;;
30408;SDS011;17207;52.960;5.916;2023-09-12T05:18:54;2.78;;;1.23;;
30408;SDS011;17207;52.960;5.916;2023-09-12T05:21:20;2.83;;;1.95;;
30408;SDS011;17207;52.960;5.916;2023-09-12T05:23:47;3.95;;;1.42;;
30408;SDS011;17207;52.960;5.916;2023-09-12T05:26:13;2.38;;;1.98;;
30408;SDS011;17207;52.960;5.916;2023-09-12T05:28:39;2.67;;;1.55;;
30408;SDS011;17207;52.960;5.916;2023-09-12T05:31:05;1.52;;;1.10;;
30408;SDS011;17207;52.960;5.916;2023-09-12T05:33:31;2.75;;;1.50;;
30408;SDS011;17207;52.960;5.916;2023-09-12T05:35:57;3.55;;;1.35;;
30408;SDS011;17207;52.960;5.916;2023-09-12T05:38:23;5.57;;;1.30;;
30408;SDS011;17207;52.960;5.916;2023-09-12T05:40:49;2.47;;;1.27;;
30408;SDS011;17207;52.960;5.916;2023-09-12T05:43:18;1.95;;;1.30;;
30408;SDS011;17207;52.960;5.916;2023-09-12T05:45:45;1.55;;;1.38;;
30408;SDS011;17207;52.960;5.916;2023-09-12T05:48:11;3.03;;;1.90;;
30408;SDS011;17207;52.960;5.916;2023-09-12T05:50:37;3.88;;;1.88;;
30408;SDS011;17207;52.960;5.916;2023-09-12T05:53:03;1.67;;;1.30;;
30408;SDS011;17207;52.960;5.916;2023-09-12T05:55:29;2.75;;;2.00;;
30408;SDS011;17207;52.960;5.916;2023-09-12T05:57:55;2.13;;;1.30;;
30408;SDS011;17207;52.960;5.916;2023-09-12T06:00:21;4.03;;;1.65;;
30408;SDS011;17207;52.960;5.916;2023-09-12T06:02:47;2.63;;;1.80;;
30408;SDS011;17207;52.960;5.916;2023-09-12T06:05:14;2.30;;;1.10;;
30408;SDS011;17207;52.960;5.916;2023-09-12T06:07:40;2.80;;;1.70;;
30408;SDS011;17207;52.960;5.916;2023-09-12T06:10:07;2.53;;;1.73;;
30408;SDS011;17207;52.960;5.916;2023-09-12T06:12:33;3.00;;;1.63;;
30408;SDS011;17207;52.960;5.916;2023-09-12T06:17:27;2.83;;;1.80;;
30408;SDS011;17207;52.960;5.916;2023-09-12T06:19:54;2.83;;;2.05;;
30408;SDS011;17207;52.960;5.916;2023-09-12T06:22:20;2.08;;;1.40;;
30408;SDS011;17207;52.960;5.916;2023-09-12T06:24:48;3.10;;;2.15;;
30408;SDS011;17207;52.960;5.916;2023-09-12T06:27:14;4.00;;;2.00;;
30408;SDS011;17207;52.960;5.916;2023-09-12T06:29:47;2.90;;;1.73;;
30408;SDS011;17207;52.960;5.916;2023-09-12T06:32:13;1.50;;;1.15;;
30408;SDS011;17207;52.960;5.916;2023-09-12T06:34:40;3.63;;;1.77;;
30408;SDS011;17207;52.960;5.916;2023-09-12T06:37:06;2.33;;;1.77;;
30408;SDS011;17207;52.960;5.916;2023-09-12T06:39:32;7.20;;;1.85;;
30408;SDS011;17207;52.960;5.916;2023-09-12T06:41:58;5.50;;;1.52;;
30408;SDS011;17207;52.960;5.916;2023-09-12T06:44:24;2.95;;;1.52;;
30408;SDS011;17207;52.960;5.916;2023-09-12T06:46:51;2.63;;;1.90;;
30408;SDS011;17207;52.960;5.916;2023-09-12T06:49:17;2.92;;;1.75;;
30408;SDS011;17207;52.960;5.916;2023-09-12T06:51:43;3.42;;;2.22;;
30408;SDS011;17207;52.960;5.916;2023-09-12T06:54:09;7.25;;;2.75;;
30408;SDS011;17207;52.960;5.916;2023-09-12T06:56:35;5.38;;;2.17;;
30408;SDS011;17207;52.960;5.916;2023-09-12T06:59:03;5.18;;;2.72;;
30408;SDS011;17207;52.960;5.916;2023-09-12T07:01:29;4.07;;;2.22;;
30408;SDS011;17207;52.960;5.916;2023-09-12T07:03:55;6.82;;;2.63;;
30408;SDS011;17207;52.960;5.916;2023-09-12T07:06:22;8.32;;;1.65;;
30408;SDS011;17207;52.960;5.916;2023-09-12T07:08:48;5.47;;;2.50;;
30408;SDS011;17207;52.960;5.916;2023-09-12T07:11:14;7.75;;;2.38;;
30408;SDS011;17207;52.960;5.916;2023-09-12T07:13:40;3.22;;;1.92;;
30408;SDS011;17207;52.960;5.916;2023-09-12T07:16:06;3.58;;;1.88;;
30408;SDS011;17207;52.960;5.916;2023-09-12T07:18:32;4.47;;;2.20;;
30408;SDS011;17207;52.960;5.916;2023-09-12T07:20:59;7.88;;;2.67;;
30408;SDS011;17207;52.960;5.916;2023-09-12T07:23:25;3.23;;;2.17;;
30408;SDS011;17207;52.960;5.916;2023-09-12T07:25:51;5.20;;;1.95;;
30408;SDS011;17207;52.960;5.916;2023-09-12T07:28:18;4.80;;;2.28;;
30408;SDS011;17207;52.960;5.916;2023-09-12T07:30:47;6.88;;;2.53;;
30408;SDS011;17207;52.960;5.916;2023-09-12T07:33:13;4.97;;;2.25;;
30408;SDS011;17207;52.960;5.916;2023-09-12T07:35:39;6.22;;;2.58;;
30408;SDS011;17207;52.960;5.916;2023-09-12T07:38:05;5.22;;;2.25;;
30408;SDS011;17207;52.960;5.916;2023-09-12T07:40:31;4.07;;;2.10;;
30408;SDS011;17207;52.960;5.916;2023-09-12T07:42:57;4.88;;;2.92;;
30408;SDS011;17207;52.960;5.916;2023-09-12T07:45:23;3.72;;;2.45;;
30408;SDS011;17207;52.960;5.916;2023-09-12T07:47:49;4.35;;;2.13;;
30408;SDS011;17207;52.960;5.916;2023-09-12T07:50:15;4.47;;;2.05;;
30408;SDS011;17207;52.960;5.916;2023-09-12T07:52:42;2.95;;;1.80;;
30408;SDS011;17207;52.960;5.916;2023-09-12T07:55:08;3.17;;;2.17;;
30408;SDS011;17207;52.960;5.916;2023-09-12T07:57:34;3.90;;;1.77;;
30408;SDS011;17207;52.960;5.916;2023-09-12T08:00:01;4.38;;;2.58;;
30408;SDS011;17207;52.960;5.916;2023-09-12T08:02:29;2.88;;;2.17;;
30408;SDS011;17207;52.960;5.916;2023-09-12T08:04:56;6.13;;;2.83;;
30408;SDS011;17207;52.960;5.916;2023-09-12T08:07:22;7.38;;;2.80;;
30408;SDS011;17207;52.960;5.916;2023-09-12T08:09:48;3.92;;;2.25;;
30408;SDS011;17207;52.960;5.916;2023-09-12T08:12:15;5.38;;;2.88;;
30408;SDS011;17207;52.960;5.916;2023-09-12T08:14:41;2.72;;;2.08;;
30408;SDS011;17207;52.960;5.916;2023-09-12T08:17:08;6.45;;;2.25;;
30408;SDS011;17207;52.960;5.916;2023-09-12T08:19:34;5.10;;;2.60;;
30408;SDS011;17207;52.960;5.916;2023-09-12T08:22:00;6.85;;;2.83;;
30408;SDS011;17207;52.960;5.916;2023-09-12T08:24:26;6.15;;;2.60;;
30408;SDS011;17207;52.960;5.916;2023-09-12T08:26:52;7.78;;;2.55;;
30408;SDS011;17207;52.960;5.916;2023-09-12T08:29:19;4.50;;;2.77;;
30408;SDS011;17207;52.960;5.916;2023-09-12T08:31:45;4.45;;;2.42;;
30408;SDS011;17207;52.960;5.916;2023-09-12T08:34:12;10.80;;;3.67;;
30408;SDS011;17207;52.960;5.916;2023-09-12T08:36:38;4.10;;;2.28;;
30408;SDS011;17207;52.960;5.916;2023-09-12T08:39:04;5.43;;;2.90;;
30408;SDS011;17207;52.960;5.916;2023-09-12T08:41:33;5.00;;;3.00;;
30408;SDS011;17207;52.960;5.916;2023-09-12T08:43:59;5.45;;;2.88;;
30408;SDS011;17207;52.960;5.916;2023-09-12T08:46:26;8.32;;;3.35;;
30408;SDS011;17207;52.960;5.916;2023-09-12T08:48:55;5.03;;;3.10;;
30408;SDS011;17207;52.960;5.916;2023-09-12T08:51:22;7.95;;;3.50;;
30408;SDS011;17207;52.960;5.916;2023-09-12T08:53:49;6.22;;;2.53;;
30408;SDS011;17207;52.960;5.916;2023-09-12T08:56:15;7.05;;;3.63;;
30408;SDS011;17207;52.960;5.916;2023-09-12T08:58:42;5.38;;;2.72;;
30408;SDS011;17207;52.960;5.916;2023-09-12T09:01:09;4.82;;;2.45;;
30408;SDS011;17207;52.960;5.916;2023-09-12T09:03:37;7.03;;;2.75;;
30408;SDS011;17207;52.960;5.916;2023-09-12T09:06:03;3.05;;;2.70;;
30408;SDS011;17207;52.960;5.916;2023-09-12T09:08:30;7.60;;;3.40;;
30408;SDS011;17207;52.960;5.916;2023-09-12T09:10:57;10.70;;;4.03;;
30408;SDS011;17207;52.960;5.916;2023-09-12T09:13:24;5.97;;;3.38;;
30408;SDS011;17207;52.960;5.916;2023-09-12T09:16:01;6.82;;;3.13;;
30408;SDS011;17207;52.960;5.916;2023-09-12T09:18:56;4.90;;;3.15;;
30408;SDS011;17207;52.960;5.916;2023-09-12T09:21:22;4.70;;;3.33;;
30408;SDS011;17207;52.960;5.916;2023-09-12T09:23:55;2.95;;;1.75;;
30408;SDS011;17207;52.960;5.916;2023-09-12T09:26:21;6.30;;;2.60;;
30408;SDS011;17207;52.960;5.916;2023-09-12T09:31:34;4.00;;;2.47;;
30408;SDS011;17207;52.960;5.916;2023-09-12T09:34:00;3.63;;;2.67;;
30408;SDS011;17207;52.960;5.916;2023-09-12T09:36:27;5.97;;;3.47;;
30408;SDS011;17207;52.960;5.916;2023-09-12T09:38:54;5.70;;;3.20;;
30408;SDS011;17207;52.960;5.916;2023-09-12T09:41:20;5.38;;;2.65;;
30408;SDS011;17207;52.960;5.916;2023-09-12T09:43:52;7.60;;;2.45;;
30408;SDS011;17207;52.960;5.916;2023-09-12T09:46:18;5.25;;;2.35;;
30408;SDS011;17207;52.960;5.916;2023-09-12T09:48:51;5.20;;;2.85;;
30408;SDS011;17207;52.960;5.916;2023-09-12T09:51:17;2.83;;;2.05;;
30408;SDS011;17207;52.960;5.916;2023-09-12T09:53:44;4.88;;;2.53;;
30408;SDS011;17207;52.960;5.916;2023-09-12T09:56:10;4.60;;;2.28;;
30408;SDS011;17207;52.960;5.916;2023-09-12T10:01:13;4.95;;;2.63;;
30408;SDS011;17207;52.960;5.916;2023-09-12T10:03:39;3.65;;;2.53;;
30408;SDS011;17207;52.960;5.916;2023-09-12T10:06:07;4.55;;;2.25;;
30408;SDS011;17207;52.960;5.916;2023-09-12T10:08:34;6.75;;;2.75;;
30408;SDS011;17207;52.960;5.916;2023-09-12T10:11:01;5.40;;;2.17;;
30408;SDS011;17207;52.960;5.916;2023-09-12T10:13:27;6.28;;;2.60;;
30408;SDS011;17207;52.960;5.916;2023-09-12T10:15:57;4.22;;;2.35;;
30408;SDS011;17207;52.960;5.916;2023-09-12T10:18:24;6.00;;;2.20;;
30408;SDS011;17207;52.960;5.916;2023-09-12T10:20:52;4.70;;;3.10;;
30408;SDS011;17207;52.960;5.916;2023-09-12T10:23:30;5.15;;;2.50;;
30408;SDS011;17207;52.960;5.916;2023-09-12T10:25:58;2.90;;;2.10;;
30408;SDS011;17207;52.960;5.916;2023-09-12T10:28:25;3.80;;;2.42;;
30408;SDS011;17207;52.960;5.916;2023-09-12T10:30:51;3.85;;;2.13;;
30408;SDS011;17207;52.960;5.916;2023-09-12T10:33:18;3.38;;;2.10;;
30408;SDS011;17207;52.960;5.916;2023-09-12T10:35:44;6.65;;;2.28;;
30408;SDS011;17207;52.960;5.916;2023-09-12T10:38:11;4.18;;;2.35;;
30408;SDS011;17207;52.960;5.916;2023-09-12T10:40:39;5.72;;;2.35;;
30408;SDS011;17207;52.960;5.916;2023-09-12T10:43:06;7.67;;;2.53;;
30408;SDS011;17207;52.960;5.916;2023-09-12T10:45:35;4.80;;;2.40;;
30408;SDS011;17207;52.960;5.916;2023-09-12T10:50:27;3.33;;;1.88;;
30408;SDS011;17207;52.960;5.916;2023-09-12T10:52:54;3.58;;;2.50;;
30408;SDS011;17207;52.960;5.916;2023-09-12T10:55:20;5.95;;;2.47;;
30408;SDS011;17207;52.960;5.916;2023-09-12T10:58:02;3.75;;;2.05;;
30408;SDS011;17207;52.960;5.916;2023-09-12T11:00:28;6.93;;;2.47;;
30408;SDS011;17207;52.960;5.916;2023-09-12T11:02:57;4.10;;;1.73;;
30408;SDS011;17207;52.960;5.916;2023-09-12T11:08:00;2.45;;;2.03;;
30408;SDS011;17207;52.960;5.916;2023-09-12T11:10:27;3.15;;;2.10;;
30408;SDS011;17207;52.960;5.916;2023-09-12T11:12:57;2.88;;;2.33;;
30408;SDS011;17207;52.960;5.916;2023-09-12T11:15:24;3.65;;;2.20;;
30408;SDS011;17207;52.960;5.916;2023-09-12T11:18:00;4.97;;;2.03;;
30408;SDS011;17207;52.960;5.916;2023-09-12T11:20:47;4.65;;;1.70;;
30408;SDS011;17207;52.960;5.916;2023-09-12T11:23:12;6.32;;;2.60;;
30408;SDS011;17207;52.960;5.916;2023-09-12T11:25:39;7.22;;;2.22;;
30408;SDS011;17207;52.960;5.916;2023-09-12T11:28:05;2.70;;;1.92;;
30408;SDS011;17207;52.960;5.916;2023-09-12T11:30:31;3.63;;;2.03;;
30408;SDS011;17207;52.960;5.916;2023-09-12T11:32:59;3.83;;;2.30;;
30408;SDS011;17207;52.960;5.916;2023-09-12T11:35:26;3.85;;;1.77;;
30408;SDS011;17207;52.960;5.916;2023-09-12T11:37:56;3.22;;;1.90;;
30408;SDS011;17207;52.960;5.916;2023-09-12T11:40:24;3.50;;;1.92;;
30408;SDS011;17207;52.960;5.916;2023-09-12T11:45:20;2.80;;;1.63;;
30408;SDS011;17207;52.960;5.916;2023-09-12T11:47:46;3.15;;;1.98;;
30408;SDS011;17207;52.960;5.916;2023-09-12T11:53:05;3.20;;;1.83;;
30408;SDS011;17207;52.960;5.916;2023-09-12T11:55:36;3.42;;;1.95;;
30408;SDS011;17207;52.960;5.916;2023-09-12T11:58:03;2.90;;;2.00;;
30408;SDS011;17207;52.960;5.916;2023-09-12T12:00:29;3.42;;;2.20;;
30408;SDS011;17207;52.960;5.916;2023-09-12T12:02:55;3.40;;;2.05;;
30408;SDS011;17207;52.960;5.916;2023-09-12T12:05:21;2.53;;;1.70;;
30408;SDS011;17207;52.960;5.916;2023-09-12T12:07:48;3.15;;;2.17;;
30408;SDS011;17207;52.960;5.916;2023-09-12T12:10:14;2.90;;;1.90;;
30408;SDS011;17207;52.960;5.916;2023-09-12T12:12:42;2.40;;;1.83;;
30408;SDS011;17207;52.960;5.916;2023-09-12T12:15:11;2.40;;;1.65;;
30408;SDS011;17207;52.960;5.916;2023-09-12T12:17:37;3.05;;;1.73;;
30408;SDS011;17207;52.960;5.916;2023-09-12T12:20:06;3.13;;;2.13;;
30408;SDS011;17207;52.960;5.916;2023-09-12T12:22:35;1.95;;;1.63;;
30408;SDS011;17207;52.960;5.916;2023-09-12T12:25:07;3.35;;;1.77;;
30408;SDS011;17207;52.960;5.916;2023-09-12T12:27:37;5.10;;;2.17;;
30408;SDS011;17207;52.960;5.916;2023-09-12T12:30:07;4.20;;;2.20;;
30408;SDS011;17207;52.960;5.916;2023-09-12T12:32:33;2.20;;;1.35;;
30408;SDS011;17207;52.960;5.916;2023-09-12T12:34:59;3.50;;;2.25;;
30408;SDS011;17207;52.960;5.916;2023-09-12T12:37:28;2.67;;;1.83;;
30408;SDS011;17207;52.960;5.916;2023-09-12T12:39:58;2.33;;;1.75;;
30408;SDS011;17207;52.960;5.916;2023-09-12T12:42:24;1.67;;;1.35;;
30408;SDS011;17207;52.960;5.916;2023-09-12T12:44:54;3.50;;;1.77;;
30408;SDS011;17207;52.960;5.916;2023-09-12T12:47:20;3.05;;;1.95;;
30408;SDS011;17207;52.960;5.916;2023-09-12T12:49:50;3.22;;;1.67;;
30408;SDS011;17207;52.960;5.916;2023-09-12T12:52:21;2.70;;;2.05;;
30408;SDS011;17207;52.960;5.916;2023-09-12T12:54:48;3.28;;;1.80;;
30408;SDS011;17207;52.960;5.916;2023-09-12T12:57:16;4.07;;;2.22;;
30408;SDS011;17207;52.960;5.916;2023-09-12T12:59:47;3.05;;;1.50;;
30408;SDS011;17207;52.960;5.916;2023-09-12T13:02:14;3.50;;;1.92;;
30408;SDS011;17207;52.960;5.916;2023-09-12T13:04:40;9.00;;;2.53;;
30408;SDS011;17207;52.960;5.916;2023-09-12T13:07:06;3.65;;;1.95;;
30408;SDS011;17207;52.960;5.916;2023-09-12T13:09:32;2.85;;;1.77;;
30408;SDS011;17207;52.960;5.916;2023-09-12T13:11:59;4.50;;;2.10;;
30408;SDS011;17207;52.960;5.916;2023-09-12T13:14:25;2.85;;;2.03;;
30408;SDS011;17207;52.960;5.916;2023-09-12T13:16:59;3.22;;;1.55;;
30408;SDS011;17207;52.960;5.916;2023-09-12T13:19:25;2.95;;;2.03;;
30408;SDS011;17207;52.960;5.916;2023-09-12T13:21:52;6.45;;;1.90;;
30408;SDS011;17207;52.960;5.916;2023-09-12T13:24:18;1.60;;;1.38;;
30408;SDS011;17207;52.960;5.916;2023-09-12T13:26:44;3.67;;;2.42;;
30408;SDS011;17207;52.960;5.916;2023-09-12T13:29:10;6.57;;;1.65;;
30408;SDS011;17207;52.960;5.916;2023-09-12T13:31:36;2.67;;;1.75;;
30408;SDS011;17207;52.960;5.916;2023-09-12T13:34:02;1.95;;;1.55;;
30408;SDS011;17207;52.960;5.916;2023-09-12T13:36:28;3.50;;;2.05;;
30408;SDS011;17207;52.960;5.916;2023-09-12T13:38:54;7.75;;;1.83;;
30408;SDS011;17207;52.960;5.916;2023-09-12T13:41:21;1.70;;;1.55;;
30408;SDS011;17207;52.960;5.916;2023-09-12T13:43:50;2.30;;;2.00;;
30408;SDS011;17207;52.960;5.916;2023-09-12T13:46:16;6.13;;;2.30;;
30408;SDS011;17207;52.960;5.916;2023-09-12T13:48:42;3.13;;;2.50;;
30408;SDS011;17207;52.960;5.916;2023-09-12T13:51:08;2.50;;;1.70;;
30408;SDS011;17207;52.960;5.916;2023-09-12T13:53:34;2.72;;;2.00;;
30408;SDS011;17207;52.960;5.916;2023-09-12T13:56:00;2.58;;;1.95;;
30408;SDS011;17207;52.960;5.916;2023-09-12T13:58:27;1.92;;;1.55;;
30408;SDS011;17207;52.960;5.916;2023-09-12T14:00:53;1.90;;;1.67;;
30408;SDS011;17207;52.960;5.916;2023-09-12T14:03:19;2.75;;;1.65;;
30408;SDS011;17207;52.960;5.916;2023-09-12T14:05:45;2.00;;;1.70;;
30408;SDS011;17207;52.960;5.916;2023-09-12T14:08:11;2.05;;;1.52;;
30408;SDS011;17207;52.960;5.916;2023-09-12T14:10:37;2.45;;;1.83;;
30408;SDS011;17207;52.960;5.916;2023-09-12T14:13:03;5.22;;;1.83;;
30408;SDS011;17207;52.960;5.916;2023-09-12T14:15:29;3.90;;;1.80;;
30408;SDS011;17207;52.960;5.916;2023-09-12T14:17:55;2.50;;;1.70;;
30408;SDS011;17207;52.960;5.916;2023-09-12T14:20:21;6.78;;;1.65;;
30408;SDS011;17207;52.960;5.916;2023-09-12T14:22:47;2.58;;;1.52;;
30408;SDS011;17207;52.960;5.916;2023-09-12T14:25:13;2.72;;;2.03;;
30408;SDS011;17207;52.960;5.916;2023-09-12T14:27:40;4.18;;;1.58;;
30408;SDS011;17207;52.960;5.916;2023-09-12T14:30:07;2.25;;;1.50;;
30408;SDS011;17207;52.960;5.916;2023-09-12T14:32:33;1.73;;;1.20;;
30408;SDS011;17207;52.960;5.916;2023-09-12T14:34:59;1.67;;;1.45;;
30408;SDS011;17207;52.960;5.916;2023-09-12T14:37:25;2.47;;;1.63;;
30408;SDS011;17207;52.960;5.916;2023-09-12T14:39:53;2.03;;;1.83;;
30408;SDS011;17207;52.960;5.916;2023-09-12T14:42:20;3.70;;;1.42;;
30408;SDS011;17207;52.960;5.916;2023-09-12T14:44:47;1.95;;;1.23;;
30408;SDS011;17207;52.960;5.916;2023-09-12T14:47:13;1.92;;;1.48;;
30408;SDS011;17207;52.960;5.916;2023-09-12T14:49:39;3.78;;;1.80;;
30408;SDS011;17207;52.960;5.916;2023-09-12T14:52:05;2.65;;;1.55;;
30408;SDS011;17207;52.960;5.916;2023-09-12T14:54:31;2.90;;;1.52;;
30408;SDS011;17207;52.960;5.916;2023-09-12T14:56:57;3.25;;;1.90;;
30408;SDS011;17207;52.960;5.916;2023-09-12T14:59:23;4.30;;;1.60;;
30408;SDS011;17207;52.960;5.916;2023-09-12T15:01:49;4.93;;;2.47;;
30408;SDS011;17207;52.960;5.916;2023-09-12T15:04:15;2.47;;;1.95;;
30408;SDS011;17207;52.960;5.916;2023-09-12T15:06:41;1.98;;;1.38;;
30408;SDS011;17207;52.960;5.916;2023-09-12T15:09:07;1.30;;;1.20;;
30408;SDS011;17207;52.960;5.916;2023-09-12T15:11:33;1.90;;;1.75;;
30408;SDS011;17207;52.960;5.916;2023-09-12T15:13:59;2.10;;;1.35;;
30408;SDS011;17207;52.960;5.916;2023-09-12T15:16:25;2.28;;;1.38;;